Millers Tavern, Virginia
Current Conditions -  °F | °C
As of 8:15 PM on Saturday 22 Nov 2014 (Local Time) from KXSA Reporting Station
Clear Clear  
Wind Chill: 38°   Ceiling: Unl
Heat Index: 41°   Visibility: 10mi
Dew Point: 11°   Wind: 6mph
Humidity: 29%   Direction: 190°S
Pressure: 30.33"   Gusts: NA
Location:  37.83°N, 76.95°W
Report Text: KXSA 230115Z AUTO 19005KT 10SM CLR 05/M12 A3033 RMK AO2 T00521116
Loading
Personal Weather Stations






























Interactive Weather Map New forecast layout! Learn more

10-Day Weather Forecast

Advertisements
Track Severe Weather on mobile